createdAt,value
2023-02-11T00:01:30.711Z,4.77
2023-02-11T00:03:57.097Z,4.79
2023-02-11T00:06:23.455Z,4.78
2023-02-11T00:08:49.843Z,4.81
2023-02-11T00:11:16.241Z,4.81
2023-02-11T00:13:42.618Z,4.78
2023-02-11T00:16:09.054Z,4.76
2023-02-11T00:18:35.437Z,4.81
2023-02-11T00:21:01.855Z,4.76
2023-02-11T00:23:28.239Z,4.69
2023-02-11T00:25:54.626Z,4.68
2023-02-11T00:28:21.280Z,4.68
2023-02-11T00:30:47.773Z,4.63
2023-02-11T00:33:14.199Z,4.61
2023-02-11T00:35:40.595Z,4.59
2023-02-11T00:38:07.012Z,4.60
2023-02-11T00:40:33.396Z,4.59
2023-02-11T00:42:59.837Z,4.53
2023-02-11T00:45:26.199Z,4.48
2023-02-11T00:47:53.937Z,4.44
2023-02-11T00:50:20.313Z,4.37
2023-02-11T00:52:46.698Z,4.47
2023-02-11T00:55:13.094Z,4.27
2023-02-11T00:57:39.455Z,4.21
2023-02-11T01:00:05.890Z,4.17
2023-02-11T01:02:32.272Z,4.16
2023-02-11T01:04:58.699Z,4.16
2023-02-11T01:07:25.142Z,4.15
2023-02-11T01:09:51.532Z,4.14
2023-02-11T01:12:17.931Z,4.29
2023-02-11T01:14:44.320Z,4.27
2023-02-11T01:17:10.697Z,4.30
2023-02-11T01:19:37.101Z,4.27
2023-02-11T01:22:03.491Z,4.34
2023-02-11T01:24:29.890Z,4.43
2023-02-11T01:26:56.298Z,4.46
2023-02-11T01:29:22.706Z,4.50
2023-02-11T01:31:49.151Z,4.48
2023-02-11T01:34:15.573Z,4.39
2023-02-11T01:36:42.002Z,4.47
2023-02-11T01:39:08.400Z,4.44
2023-02-11T01:41:34.780Z,4.42
2023-02-11T01:44:01.149Z,4.39
2023-02-11T01:46:27.598Z,4.40
2023-02-11T01:48:54.063Z,4.33
2023-02-11T01:51:20.550Z,4.25
2023-02-11T01:53:46.954Z,4.26
2023-02-11T01:56:13.319Z,4.26
2023-02-11T01:58:39.713Z,4.33
2023-02-11T02:01:06.074Z,4.26
2023-02-11T02:03:32.494Z,4.24
2023-02-11T02:05:58.946Z,4.26
2023-02-11T02:08:25.345Z,4.17
2023-02-11T02:10:51.764Z,4.25
2023-02-11T02:13:18.137Z,4.25
2023-02-11T02:15:44.567Z,4.28
2023-02-11T02:18:11.051Z,4.34
2023-02-11T02:20:37.526Z,4.32
2023-02-11T02:23:03.934Z,4.25
2023-02-11T02:25:30.306Z,4.43
2023-02-11T02:27:56.776Z,4.32
2023-02-11T02:30:23.192Z,4.31
2023-02-11T02:32:49.590Z,4.22
2023-02-11T02:35:16.048Z,4.18
2023-02-11T02:37:42.464Z,4.17
2023-02-11T02:40:08.867Z,4.19
2023-02-11T02:42:35.241Z,4.14
2023-02-11T02:45:01.641Z,4.19
2023-02-11T02:47:28.025Z,4.13
2023-02-11T02:49:54.417Z,4.13
2023-02-11T02:52:20.808Z,4.18
2023-02-11T02:54:47.173Z,4.19
2023-02-11T02:57:13.588Z,4.13
2023-02-11T02:59:39.962Z,4.14
2023-02-11T03:02:06.333Z,4.03
2023-02-11T03:04:32.706Z,4.04
2023-02-11T03:06:59.065Z,4.06
2023-02-11T03:09:25.452Z,4.07
2023-02-11T03:11:51.831Z,4.08
2023-02-11T03:14:18.220Z,4.20
2023-02-11T03:16:44.579Z,4.19
2023-02-11T03:19:11.016Z,4.11
2023-02-11T03:21:37.399Z,4.18
2023-02-11T03:24:03.773Z,4.11
2023-02-11T03:26:30.197Z,4.06
2023-02-11T03:28:56.566Z,4.13
2023-02-11T03:31:23.077Z,4.13
2023-02-11T03:33:49.576Z,4.06
2023-02-11T03:36:15.955Z,4.05
2023-02-11T03:38:42.335Z,4.10
2023-02-11T03:41:08.751Z,3.98
2023-02-11T03:43:35.141Z,4.04
2023-02-11T03:46:01.602Z,4.03
2023-02-11T03:48:28.029Z,4.00
2023-02-11T03:50:54.397Z,4.04
2023-02-11T03:53:20.777Z,4.02
2023-02-11T03:55:47.149Z,3.99
2023-02-11T03:58:13.529Z,3.98
2023-02-11T04:00:39.955Z,3.92
2023-02-11T04:03:06.372Z,3.91
2023-02-11T04:05:32.926Z,3.83
2023-02-11T04:07:59.308Z,3.79
2023-02-11T04:10:25.703Z,3.86
2023-02-11T04:12:52.080Z,3.79
2023-02-11T04:15:18.516Z,3.82
2023-02-11T04:17:44.908Z,3.77
2023-02-11T04:20:11.311Z,3.74
2023-02-11T04:22:37.692Z,3.77
2023-02-11T04:25:04.076Z,3.71
2023-02-11T04:27:30.464Z,3.67
2023-02-11T04:29:56.837Z,3.64
2023-02-11T04:32:23.290Z,3.61
2023-02-11T04:34:49.680Z,3.62
2023-02-11T04:37:16.072Z,3.60
2023-02-11T04:39:42.441Z,3.47
2023-02-11T04:42:08.806Z,3.49
2023-02-11T04:44:35.224Z,3.45
2023-02-11T04:47:01.613Z,3.48
2023-02-11T04:49:28.034Z,3.42
2023-02-11T04:51:54.462Z,3.42
2023-02-11T04:54:20.852Z,3.44
2023-02-11T04:56:47.278Z,3.38
2023-02-11T04:59:13.686Z,3.32
2023-02-11T05:01:40.149Z,3.27
2023-02-11T05:04:06.634Z,3.25
2023-02-11T05:06:33.069Z,3.32
2023-02-11T05:08:59.458Z,3.36
2023-02-11T05:11:25.836Z,3.37
2023-02-11T05:13:52.256Z,3.33
2023-02-11T05:16:18.713Z,3.40
2023-02-11T05:18:45.175Z,3.40
2023-02-11T05:21:11.583Z,3.40
2023-02-11T05:23:37.992Z,3.41
2023-02-11T05:26:04.401Z,3.39
2023-02-11T05:28:30.844Z,3.39
2023-02-11T05:30:57.289Z,3.38
2023-02-11T05:33:23.678Z,3.41
2023-02-11T05:35:50.325Z,3.43
2023-02-11T05:38:16.902Z,3.53
2023-02-11T05:40:43.277Z,3.57
2023-02-11T05:43:09.662Z,3.61
2023-02-11T05:45:36.109Z,3.60
2023-02-11T05:48:02.502Z,3.52
2023-02-11T05:50:28.878Z,3.48
2023-02-11T05:52:55.324Z,3.51
2023-02-11T05:55:24.615Z,3.53
2023-02-11T05:57:51.049Z,3.62
2023-02-11T06:00:17.443Z,3.58
2023-02-11T06:02:44.092Z,3.62
2023-02-11T06:05:10.552Z,3.57
2023-02-11T06:07:36.949Z,3.52
2023-02-11T06:10:03.352Z,3.43
2023-02-11T06:12:29.750Z,3.42
2023-02-11T06:14:56.132Z,3.35
2023-02-11T06:17:22.517Z,3.29
2023-02-11T06:19:48.912Z,3.23
2023-02-11T06:22:15.323Z,3.19
2023-02-11T06:25:00.205Z,3.13
2023-02-11T06:27:27.540Z,3.30
2023-02-11T06:29:53.927Z,3.38
2023-02-11T06:32:37.256Z,3.24
2023-02-11T06:35:06.181Z,3.28
2023-02-11T06:37:32.549Z,3.18
2023-02-11T06:39:58.896Z,3.12
2023-02-11T06:42:25.315Z,3.10
2023-02-11T06:44:51.728Z,3.08
2023-02-11T06:47:18.112Z,3.08
2023-02-11T06:49:44.464Z,3.05
2023-02-11T06:52:10.880Z,3.06
2023-02-11T06:54:37.243Z,2.99
2023-02-11T06:57:03.634Z,3.08
2023-02-11T06:59:30.036Z,3.08
2023-02-11T07:01:56.476Z,3.17
2023-02-11T07:04:22.902Z,3.17
2023-02-11T07:06:49.293Z,3.22
2023-02-11T07:09:15.696Z,3.35
2023-02-11T07:11:42.082Z,3.33
2023-02-11T07:14:08.496Z,3.29
2023-02-11T07:16:34.962Z,3.31
2023-02-11T07:19:01.360Z,3.37
2023-02-11T07:21:27.778Z,3.37
2023-02-11T07:23:54.162Z,3.54
2023-02-11T07:26:20.525Z,3.37
2023-02-11T07:28:46.897Z,3.44
2023-02-11T07:31:13.448Z,3.40
2023-02-11T07:33:39.912Z,3.41
2023-02-11T07:36:06.286Z,3.51
2023-02-11T07:38:32.661Z,3.65
2023-02-11T07:40:59.088Z,3.69
2023-02-11T07:43:25.465Z,3.75
2023-02-11T07:45:51.994Z,3.71
2023-02-11T07:48:18.495Z,3.76
2023-02-11T07:50:44.898Z,3.87
2023-02-11T07:53:11.286Z,3.92
2023-02-11T07:55:37.662Z,3.70
2023-02-11T07:58:04.029Z,3.80
2023-02-11T08:00:31.784Z,3.79
2023-02-11T08:02:58.155Z,3.82
2023-02-11T08:05:24.527Z,4.47
2023-02-11T08:07:50.962Z,4.36
2023-02-11T08:10:17.359Z,4.19
2023-02-11T08:12:43.737Z,3.95
2023-02-11T08:15:10.127Z,4.02
2023-02-11T08:17:36.505Z,3.95
2023-02-11T08:20:02.885Z,4.00
2023-02-11T08:22:29.355Z,3.91
2023-02-11T08:24:55.707Z,3.88
2023-02-11T08:27:22.074Z,3.83
2023-02-11T08:29:48.484Z,4.04
2023-02-11T08:32:14.889Z,3.83
2023-02-11T08:34:41.300Z,3.82
2023-02-11T08:37:07.702Z,3.87
2023-02-11T08:39:34.100Z,3.79
2023-02-11T08:42:00.489Z,3.28
2023-02-11T08:44:26.875Z,3.25
2023-02-11T08:46:53.267Z,3.28
2023-02-11T08:49:19.660Z,3.15
2023-02-11T08:51:46.100Z,3.44
2023-02-11T08:54:12.495Z,3.70
2023-02-11T08:56:38.978Z,3.90
2023-02-11T08:59:05.405Z,3.73
2023-02-11T09:01:31.899Z,3.82
2023-02-11T09:03:58.367Z,4.05
2023-02-11T09:06:24.756Z,4.25
2023-02-11T09:08:51.125Z,4.19
2023-02-11T09:11:17.501Z,4.19
2023-02-11T09:13:43.917Z,4.33
2023-02-11T09:16:10.393Z,4.53
2023-02-11T09:18:36.781Z,4.82
2023-02-11T09:21:03.181Z,5.01
2023-02-11T09:23:29.612Z,5.29
2023-02-11T09:25:55.999Z,5.36
2023-02-11T09:28:22.470Z,5.46
2023-02-11T09:30:48.981Z,5.26
2023-02-11T09:33:15.518Z,5.43
2023-02-11T09:35:41.929Z,5.47
2023-02-11T09:38:08.354Z,6.02
2023-02-11T09:40:34.719Z,5.99
2023-02-11T09:43:04.019Z,5.94
2023-02-11T09:45:30.593Z,6.24
2023-02-11T09:47:56.971Z,6.32
2023-02-11T09:50:23.364Z,6.36
2023-02-11T09:52:49.825Z,6.07
2023-02-11T09:55:16.178Z,6.02
2023-02-11T09:57:42.569Z,6.18
2023-02-11T10:00:08.952Z,6.12
2023-02-11T10:02:35.368Z,5.77
2023-02-11T10:05:01.773Z,5.86
2023-02-11T10:07:28.138Z,5.88
2023-02-11T10:09:54.532Z,6.08
2023-02-11T10:12:20.937Z,5.60
2023-02-11T10:14:47.308Z,5.73
2023-02-11T10:17:13.750Z,5.95
2023-02-11T10:19:40.110Z,5.66
2023-02-11T10:22:06.496Z,6.03
2023-02-11T10:24:32.879Z,6.23
2023-02-11T10:26:59.251Z,6.08
2023-02-11T10:29:25.646Z,6.10
2023-02-11T10:31:52.047Z,5.94
2023-02-11T10:34:18.475Z,6.11
2023-02-11T10:36:44.851Z,6.29
2023-02-11T10:39:11.264Z,6.39
2023-02-11T10:41:37.657Z,6.27
2023-02-11T10:44:04.043Z,6.64
2023-02-11T10:46:30.467Z,6.18
2023-02-11T10:48:56.848Z,6.06
2023-02-11T10:51:23.211Z,6.09
2023-02-11T10:53:49.601Z,6.34
2023-02-11T10:56:15.968Z,6.52
2023-02-11T10:58:42.385Z,6.61
2023-02-11T11:01:23.412Z,6.26
2023-02-11T11:03:50.886Z,6.29
2023-02-11T11:06:17.258Z,6.30
2023-02-11T11:08:43.645Z,6.39
2023-02-11T11:11:10.114Z,6.13
2023-02-11T11:13:36.518Z,6.66
2023-02-11T11:16:02.988Z,7.35
2023-02-11T11:18:29.385Z,6.67
2023-02-11T11:20:55.829Z,6.84
2023-02-11T11:23:22.205Z,6.82
2023-02-11T11:25:48.561Z,7.44
2023-02-11T11:28:14.986Z,7.24
2023-02-11T11:30:41.516Z,7.83
2023-02-11T11:33:07.885Z,8.13
2023-02-11T11:35:34.295Z,7.51
2023-02-11T11:38:01.922Z,7.32
2023-02-11T11:40:28.566Z,7.05
2023-02-11T11:42:54.949Z,7.11
2023-02-11T11:45:21.327Z,8.20
2023-02-11T11:47:47.713Z,8.37
2023-02-11T11:50:14.095Z,8.26
2023-02-11T11:52:40.514Z,8.74
2023-02-11T11:55:06.884Z,8.90
2023-02-11T11:57:33.285Z,9.06
2023-02-11T11:59:59.666Z,8.63
2023-02-11T12:02:26.185Z,7.93
2023-02-11T12:04:52.578Z,8.25
2023-02-11T12:07:18.955Z,7.88
2023-02-11T12:09:45.357Z,8.86
2023-02-11T12:12:11.795Z,8.44
2023-02-11T12:14:38.221Z,8.64
2023-02-11T12:17:04.596Z,8.81
2023-02-11T12:19:30.960Z,8.72
2023-02-11T12:21:57.325Z,9.30
2023-02-11T12:24:23.702Z,9.61
2023-02-11T12:26:50.096Z,9.91
2023-02-11T12:29:16.476Z,10.22
2023-02-11T12:31:42.921Z,10.14
2023-02-11T12:34:09.354Z,9.58
2023-02-11T12:36:35.733Z,10.02
2023-02-11T12:39:02.103Z,10.57
2023-02-11T12:41:28.498Z,10.54
2023-02-11T12:43:54.900Z,10.52
2023-02-11T12:46:21.355Z,10.92
2023-02-11T12:48:47.743Z,10.97
2023-02-11T12:51:14.108Z,10.63
2023-02-11T12:53:40.532Z,10.60
2023-02-11T12:56:06.936Z,10.15
2023-02-11T12:58:44.449Z,10.40
2023-02-11T13:01:12.008Z,10.32
2023-02-11T13:03:38.426Z,10.24
2023-02-11T13:06:04.825Z,10.17
2023-02-11T13:08:31.226Z,10.66
2023-02-11T13:10:57.628Z,10.58
2023-02-11T13:13:24.053Z,10.10
2023-02-11T13:15:50.459Z,10.50
2023-02-11T13:18:19.028Z,9.83
2023-02-11T13:20:45.631Z,10.35
2023-02-11T13:23:12.001Z,9.75
2023-02-11T13:25:38.354Z,10.26
2023-02-11T13:28:04.763Z,10.65
2023-02-11T13:30:31.205Z,10.47
2023-02-11T13:32:57.650Z,10.17
2023-02-11T13:35:24.044Z,10.80
2023-02-11T13:37:50.413Z,11.11
2023-02-11T13:40:16.850Z,10.22
2023-02-11T13:42:43.214Z,10.02
2023-02-11T13:45:09.586Z,10.70
2023-02-11T13:47:35.971Z,10.71
2023-02-11T13:50:02.372Z,10.92
2023-02-11T13:52:28.752Z,11.19
2023-02-11T13:54:55.184Z,11.32
2023-02-11T13:57:21.560Z,11.95
2023-02-11T13:59:47.932Z,11.01
2023-02-11T14:02:14.404Z,10.72
2023-02-11T14:04:40.862Z,10.48
2023-02-11T14:07:07.226Z,9.88
2023-02-11T14:09:33.624Z,10.47
2023-02-11T14:11:59.982Z,10.44
2023-02-11T14:14:26.387Z,10.96
2023-02-11T14:16:52.823Z,11.05
2023-02-11T14:19:19.238Z,11.00
2023-02-11T14:21:45.691Z,11.00
2023-02-11T14:24:12.077Z,11.76
2023-02-11T14:26:38.503Z,11.94
2023-02-11T14:29:04.885Z,12.42
2023-02-11T14:31:31.392Z,12.94
2023-02-11T14:33:57.908Z,12.18
2023-02-11T14:36:24.389Z,12.31
2023-02-11T14:38:50.782Z,12.02
2023-02-11T14:41:17.180Z,12.14
2023-02-11T14:43:43.603Z,13.19
2023-02-11T14:46:10.098Z,13.14
2023-02-11T14:48:36.555Z,13.81
2023-02-11T14:51:03.017Z,13.62
2023-02-11T14:53:29.446Z,13.85
2023-02-11T14:55:55.839Z,14.74
2023-02-11T14:58:22.244Z,14.19
2023-02-11T15:00:48.711Z,14.47
2023-02-11T15:03:15.169Z,14.64
2023-02-11T15:05:41.558Z,14.61
2023-02-11T15:08:09.974Z,13.71
2023-02-11T15:10:36.454Z,14.86
2023-02-11T15:13:02.841Z,14.76
2023-02-11T15:15:29.243Z,14.60
2023-02-11T15:17:55.628Z,15.95
2023-02-11T15:20:22.065Z,15.07
2023-02-11T15:22:48.448Z,15.17
2023-02-11T15:25:14.850Z,15.23
2023-02-11T15:27:41.311Z,16.08
2023-02-11T15:30:07.693Z,16.39
2023-02-11T15:32:34.105Z,17.64
2023-02-11T15:35:00.573Z,17.47
2023-02-11T15:37:26.961Z,17.57
2023-02-11T15:39:53.442Z,18.11
2023-02-11T15:42:19.842Z,17.23
2023-02-11T15:44:46.540Z,17.30
2023-02-11T15:47:14.353Z,17.09
2023-02-11T15:49:40.746Z,16.97
2023-02-11T15:52:07.317Z,16.95
2023-02-11T15:54:33.700Z,16.19
2023-02-11T15:57:00.144Z,15.91
2023-02-11T15:59:26.570Z,15.27
2023-02-11T16:01:53.012Z,15.38
2023-02-11T16:04:19.439Z,15.68
2023-02-11T16:06:45.865Z,16.09
2023-02-11T16:09:12.343Z,15.90
2023-02-11T16:11:39.096Z,15.29
2023-02-11T16:14:07.109Z,15.81
2023-02-11T16:16:33.663Z,15.97
2023-02-11T16:19:05.242Z,15.85
2023-02-11T16:21:32.337Z,15.94
2023-02-11T16:23:58.774Z,15.41
2023-02-11T16:26:25.171Z,15.23
2023-02-11T16:28:51.554Z,14.55
2023-02-11T16:31:18.163Z,13.91
2023-02-11T16:33:44.598Z,13.89
2023-02-11T16:36:11.025Z,13.72
2023-02-11T16:38:37.459Z,13.30
2023-02-11T16:41:03.861Z,13.06
2023-02-11T16:43:30.266Z,12.76
2023-02-11T16:45:56.641Z,12.27
2023-02-11T16:48:23.038Z,11.84
2023-02-11T16:50:52.888Z,11.49
2023-02-11T16:53:19.736Z,11.16
2023-02-11T16:55:46.129Z,10.90
2023-02-11T16:58:12.508Z,10.42
2023-02-11T17:00:38.923Z,10.12
2023-02-11T17:03:05.363Z,9.97
2023-02-11T17:05:37.823Z,9.95
2023-02-11T17:08:09.288Z,9.74
2023-02-11T17:10:35.661Z,9.56
2023-02-11T17:13:02.063Z,9.24
2023-02-11T17:15:28.461Z,9.35
2023-02-11T17:17:54.832Z,9.40
2023-02-11T17:20:21.223Z,9.33
2023-02-11T17:22:47.697Z,9.41
2023-02-11T17:25:14.109Z,9.35
2023-02-11T17:27:40.508Z,9.38
2023-02-11T17:30:06.949Z,9.32
2023-02-11T17:32:33.326Z,9.36
2023-02-11T17:34:59.774Z,9.31
2023-02-11T17:37:26.169Z,9.21
2023-02-11T17:39:52.534Z,9.12
2023-02-11T17:42:18.929Z,9.10
2023-02-11T17:44:45.338Z,9.15
2023-02-11T17:47:11.727Z,9.09
2023-02-11T17:49:38.106Z,9.00
2023-02-11T17:52:04.476Z,8.90
2023-02-11T17:54:30.849Z,8.72
2023-02-11T17:56:58.422Z,8.59
2023-02-11T17:59:25.052Z,8.65
2023-02-11T18:01:51.453Z,8.72
2023-02-11T18:04:17.920Z,8.70
2023-02-11T18:06:44.361Z,8.67
2023-02-11T18:09:10.746Z,8.63
2023-02-11T18:11:37.145Z,8.66
2023-02-11T18:14:03.573Z,8.66
2023-02-11T18:16:30.011Z,8.67
2023-02-11T18:18:56.451Z,8.61
2023-02-11T18:21:22.908Z,8.42
2023-02-11T18:23:49.290Z,8.21
2023-02-11T18:26:15.683Z,8.24
2023-02-11T18:28:45.265Z,8.31
2023-02-11T18:31:12.282Z,8.38
2023-02-11T18:33:38.734Z,8.39
2023-02-11T18:36:05.138Z,8.27
2023-02-11T18:38:31.522Z,8.30
2023-02-11T18:40:57.873Z,8.27
2023-02-11T18:43:24.291Z,8.26
2023-02-11T18:45:51.105Z,8.24
2023-02-11T18:48:17.758Z,8.21
2023-02-11T18:50:44.144Z,8.16
2023-02-11T18:53:10.569Z,8.12
2023-02-11T18:55:37.826Z,8.14
2023-02-11T18:58:04.192Z,8.05
2023-02-11T19:00:30.579Z,8.10
2023-02-11T19:02:56.960Z,8.08
2023-02-11T19:05:23.354Z,8.09
2023-02-11T19:07:49.732Z,8.10
2023-02-11T19:10:16.111Z,8.02
2023-02-11T19:12:42.568Z,7.99
2023-02-11T19:15:08.941Z,7.95
2023-02-11T19:17:35.355Z,7.99
2023-02-11T19:20:01.760Z,7.93
2023-02-11T19:22:28.173Z,7.94
2023-02-11T19:24:54.623Z,7.85
2023-02-11T19:27:20.989Z,7.88
2023-02-11T19:29:47.488Z,7.94
2023-02-11T19:32:13.905Z,7.97
2023-02-11T19:34:40.288Z,7.94
2023-02-11T19:37:06.688Z,7.95
2023-02-11T19:39:33.081Z,7.97
2023-02-11T19:41:59.478Z,7.98
2023-02-11T19:44:25.887Z,7.98
2023-02-11T19:46:52.292Z,7.87
2023-02-11T19:49:18.697Z,7.68
2023-02-11T19:51:45.082Z,7.60
2023-02-11T19:54:11.468Z,7.61
2023-02-11T19:56:37.870Z,7.58
2023-02-11T19:59:04.269Z,7.49
2023-02-11T20:01:30.743Z,7.53
2023-02-11T20:03:57.207Z,7.57
2023-02-11T20:06:23.650Z,7.59
2023-02-11T20:08:50.047Z,7.55
2023-02-11T20:11:16.448Z,7.45
2023-02-11T20:13:42.825Z,7.47
2023-02-11T20:16:09.317Z,7.45
2023-02-11T20:18:35.801Z,7.45
2023-02-11T20:21:02.189Z,7.63
2023-02-11T20:23:28.573Z,7.57
2023-02-11T20:25:54.956Z,7.62
2023-02-11T20:28:21.417Z,7.52
2023-02-11T20:30:47.799Z,7.51
2023-02-11T20:33:14.278Z,7.46
2023-02-11T20:35:40.662Z,7.41
2023-02-11T20:38:07.063Z,7.36
2023-02-11T20:40:33.448Z,7.33
2023-02-11T20:42:59.854Z,7.35
2023-02-11T20:45:26.280Z,7.27
2023-02-11T20:47:52.650Z,7.18
2023-02-11T20:50:19.061Z,7.30
2023-02-11T20:52:45.458Z,7.22
2023-02-11T20:55:11.829Z,7.29
2023-02-11T20:57:38.226Z,7.36
2023-02-11T21:00:04.604Z,7.23
2023-02-11T21:02:31.009Z,7.21
2023-02-11T21:04:57.411Z,7.20
2023-02-11T21:07:23.779Z,7.18
2023-02-11T21:09:50.170Z,7.15
2023-02-11T21:12:16.557Z,7.18
2023-02-11T21:14:42.977Z,7.26
2023-02-11T21:17:09.367Z,7.32
2023-02-11T21:19:35.789Z,7.36
2023-02-11T21:22:02.149Z,7.35
2023-02-11T21:24:28.509Z,7.34
2023-02-11T21:26:54.930Z,7.30
2023-02-11T21:29:21.321Z,7.34
2023-02-11T21:31:47.792Z,7.24
2023-02-11T21:34:14.211Z,7.10
2023-02-11T21:36:40.600Z,7.12
2023-02-11T21:39:07.052Z,7.15
2023-02-11T21:41:33.424Z,7.17
2023-02-11T21:43:59.805Z,7.17
2023-02-11T21:46:26.377Z,7.21
2023-02-11T21:48:52.754Z,7.15
2023-02-11T21:51:19.174Z,7.03
2023-02-11T21:53:45.583Z,7.14
2023-02-11T21:56:11.961Z,7.12
2023-02-11T21:58:38.398Z,7.10
2023-02-11T22:01:04.833Z,6.94
2023-02-11T22:03:31.235Z,6.64
2023-02-11T22:05:57.807Z,6.70
2023-02-11T22:08:24.324Z,6.75
2023-02-11T22:10:54.695Z,6.80
2023-02-11T22:13:21.069Z,6.69
2023-02-11T22:15:47.446Z,6.71
2023-02-11T22:18:14.611Z,6.61
2023-02-11T22:20:41.027Z,6.64
2023-02-11T22:23:07.413Z,6.61
2023-02-11T22:25:35.002Z,6.49
2023-02-11T22:28:01.419Z,6.60
2023-02-11T22:30:28.046Z,6.67
2023-02-11T22:32:54.472Z,6.69
2023-02-11T22:35:20.831Z,6.72
2023-02-11T22:37:47.247Z,6.78
2023-02-11T22:40:13.678Z,6.77
2023-02-11T22:42:40.068Z,6.75
2023-02-11T22:45:06.469Z,6.71
2023-02-11T22:47:32.884Z,6.75
2023-02-11T22:49:59.282Z,6.66
2023-02-11T22:52:25.679Z,6.70
2023-02-11T22:54:52.092Z,6.73
2023-02-11T22:57:18.708Z,6.70
2023-02-11T22:59:45.078Z,6.73
2023-02-11T23:02:11.665Z,6.67
2023-02-11T23:04:38.144Z,6.64
2023-02-11T23:07:05.669Z,6.50
2023-02-11T23:09:32.118Z,6.50
2023-02-11T23:11:58.477Z,6.34
2023-02-11T23:14:26.014Z,6.35
2023-02-11T23:16:52.486Z,6.42
2023-02-11T23:19:19.005Z,6.44
2023-02-11T23:21:45.393Z,6.41
2023-02-11T23:24:13.827Z,6.44
2023-02-11T23:26:40.768Z,6.50
2023-02-11T23:29:07.192Z,6.63
2023-02-11T23:31:33.702Z,6.63
2023-02-11T23:34:00.147Z,6.58
2023-02-11T23:36:26.574Z,6.48
2023-02-11T23:38:52.973Z,6.66
2023-02-11T23:41:19.435Z,6.65
2023-02-11T23:43:45.805Z,6.63
2023-02-11T23:46:12.305Z,6.64
2023-02-11T23:48:38.718Z,6.68
2023-02-11T23:51:05.074Z,6.63
2023-02-11T23:53:31.462Z,6.52
2023-02-11T23:55:57.826Z,6.50
2023-02-11T23:58:24.201Z,6.49
